Latest Weather Observations for Bankstown

IDN60901

Issued at 5:51 pm EST Friday 3 July 2015 (issued every 10 minutes, with the page automatically refreshed every 10 minutes)

About weather observations | Map of Sydney area stations | Latest observations for Sydney area | Other Formats
Station Details ID: 066137 Name: BANKSTOWN AIRPORT AWS Lat: -33.92 Lon: 150.99 Height: 6.5 m
Data from the previous 72 hours. | See also: Recent months at Bankstown
Date/Time
EST
Tmp

°C
App
Tmp
°C
Dew
Point
°C
Rel
Hum
%
Delta-T

°C
Wind Press
QNH
hPa
Press
MSL
hPa
Rain
since
9 am
mm
Dir
 
Spd
km/h
Gust
km/h
Spd
kts
Gust
kts
03/05:30pm 10.3 7.5 2.2 57 3.4 ESE 6 7 3 4 1025.1 1025.1 0.0
03/05:00pm 12.0 8.4 3.0 54 3.9 ESE 11 17 6 9 1024.9 1024.9 0.0
03/04:30pm 13.0 8.2 2.5 49 4.6 ESE 17 20 9 11 1024.8 1024.8 0.0
03/04:00pm 13.8 8.7 3.0 48 4.8 SE 19 22 10 12 1024.9 1024.9 0.0
03/03:30pm 14.2 10.9 2.5 45 5.2 E 9 13 5 7 1024.7 1024.7 0.0
03/03:00pm 14.0 10.2 1.6 43 5.3 ESE 11 15 6 8 1024.5 1024.5 0.0
03/02:30pm 14.0 10.8 1.0 41 5.6 S 7 11 4 6 1024.6 1024.6 0.0
03/02:00pm 14.7 10.9 1.6 41 5.7 S 11 17 6 9 1024.6 1024.6 0.0
03/01:30pm 14.4 10.1 1.0 40 5.7 SSE 13 19 7 10 1024.9 1024.9 0.0
03/01:00pm 15.0 10.3 0.8 38 6.1 ESE 15 19 8 10 1025.3 1025.3 0.0
03/12:30pm 14.7 11.3 1.9 42 5.6 SW 9 15 5 8 1025.7 1025.7 0.0
03/12:00pm 14.0 10.2 1.6 43 5.3 SW 11 20 6 11 1026.1 1026.1 0.0
03/11:30am 13.1 8.9 1.5 45 5.0 WSW 13 17 7 9 1026.6 1026.6 0.0
03/11:00am 12.4 7.7 0.8 45 4.8 SW 15 20 8 11 1026.8 1026.8 0.0
03/10:30am 11.7 7.0 0.8 47 4.5 SW 15 24 8 13 1027.2 1027.2 0.0
03/10:00am 10.3 5.1 -0.2 48 4.2 WSW 17 22 9 12 1027.3 1027.3 0.0
03/09:30am 9.0 4.4 -1.1 49 3.9 SW 13 19 7 10 1027.2 1027.2 0.0
03/09:00am 7.6 3.0 -1.1 54 3.3 SW 13 19 7 10 1027.0 1027.0 0.0
03/08:30am 6.4 2.5 -1.5 57 2.9 SW 9 15 5 8 1026.8 1026.8 0.0
03/08:00am 5.4 1.5 -1.3 62 2.5 SW 9 11 5 6 1026.6 1026.6 0.0
03/07:30am 4.3 0.7 -1.9 64 2.2 WSW 7 9 4 5 1026.6 1026.6 0.0
03/07:00am 4.2 0.8 -2.0 64 2.2 WSW 6 7 3 4 1026.3 1026.3 0.0
03/06:30am 4.9 0.9 -2.0 61 2.5 SW 9 19 5 10 1025.9 1025.9 0.0
03/06:00am 4.6 0.3 -2.0 62 2.4 WSW 11 17 6 9 1025.4 1025.4 0.0
03/05:30am 4.4 0.8 -1.8 64 2.2 WSW 7 13 4 7 1025.2 1025.2 0.0
03/05:00am 4.6 1.0 -2.3 61 2.4 SW 7 11 4 6 1025.1 1025.1 0.0
03/04:30am 5.0 1.0 -2.1 60 2.6 SW 9 13 5 7 1025.1 1025.1 0.0
03/04:00am 5.2 1.2 -1.9 60 2.6 SW 9 11 5 6 1024.6 1024.6 0.0
03/03:30am 5.2 1.8 -2.1 59 2.6 WSW 6 11 3 6 1024.5 1024.5 0.0
03/03:00am 5.4 2.0 -1.7 60 2.6 WSW 6 7 3 4 1024.3 1024.3 0.0
03/02:30am 5.2 1.3 -1.5 62 2.5 SSW 9 13 5 7 1024.2 1024.2 0.0
03/02:00am 5.4 2.1 -1.3 62 2.5 SSW 6 9 3 5 1024.3 1024.3 0.0
03/01:30am 6.1 2.6 -1.1 60 2.7 SW 7 9 4 5 1024.3 1024.3 0.0
03/01:00am 6.1 2.3 -0.6 62 2.5 WSW 9 11 5 6 1024.3 1024.3 0.0
03/12:30am 6.4 3.0 -0.6 61 2.6 SW 7 11 4 6 1024.3 1024.3 0.0
03/12:00am 7.2 3.4 -0.5 58 2.9 SW 9 13 5 7 1024.4 1024.4 0.0
 
Date/Time
EST
Tmp

°C
App
Tmp
°C
Dew
Point
°C
Rel
Hum
%
Delta-T

°C
Wind Press
QNH
hPa
Press
MSL
hPa
Rain
since
9 am
mm
Dir
 
Spd
km/h
Gust
km/h
Spd
kts
Gust
kts
02/11:30pm 7.7 4.3 -0.3 57 3.1 SW 7 11 4 6 1024.6 1024.6 0.0
02/11:00pm 8.1 4.1 0.3 58 3.1 SW 11 15 6 8 1024.5 1024.5 0.0
02/10:30pm 8.4 5.2 0.6 58 3.1 WSW 7 13 4 7 1024.2 1024.2 0.0
02/10:00pm 9.2 5.3 0.9 56 3.4 SW 11 17 6 9 1023.9 1023.9 0.0
02/09:30pm 9.4 4.7 0.8 55 3.5 SSW 15 22 8 12 1023.7 1023.7 0.0
02/09:00pm 9.9 4.8 0.8 53 3.7 SW 17 24 9 13 1023.3 1023.3 0.0
02/08:30pm 10.3 5.6 0.6 51 4.0 SW 15 24 8 13 1022.9 1022.9 0.0
02/08:00pm 10.8 6.4 0.2 48 4.3 SW 13 19 7 10 1022.2 1022.2 0.0
02/07:30pm 10.2 6.9 0.3 50 4.0 SSW 7 17 4 9 1021.8 1021.8 0.0
02/07:00pm 10.6 6.9 0.1 48 4.2 SSW 9 17 5 9 1021.2 1021.2 0.0
02/06:30pm 12.0 5.5 0.5 45 4.8 W 24 35 13 19 1020.4 1020.4 0.0
02/06:00pm 12.2 6.2 0.9 46 4.7 WSW 22 32 12 17 1019.9 1019.9 0.0
02/05:36pm 12.7 5.6 1.1 45 4.9 WSW 28 46 15 25 1019.7 1019.7 0.0
02/05:30pm 12.8 5.3 1.2 45 4.9 WSW 30 46 16 25 1019.5 1019.5 0.0
02/05:17pm 13.0 5.2 1.4 45 5.0 WSW 32 50 17 27 1019.4 1019.4 0.0
02/05:00pm 13.5 6.4 1.2 43 5.2 WSW 28 41 15 22 1019.6 1019.6 0.0
02/04:30pm 14.2 6.3 1.2 41 5.6 SW 32 52 17 28 1018.8 1018.8 0.0
02/04:07pm 14.4 7.3 1.3 41 5.7 SW 28 46 15 25 1018.0 1018.0 0.0
02/04:00pm 14.6 7.4 0.8 39 5.9 WSW 28 43 15 23 1018.0 1018.0 0.0
02/03:30pm 15.4 9.5 1.5 39 6.1 WSW 22 32 12 17 1018.0 1018.0 0.0
02/03:00pm 15.7 8.9 1.1 37 6.3 WSW 26 39 14 21 1017.6 1017.6 0.0
02/02:55pm 15.6 8.4 1.0 37 6.3 WSW 28 46 15 25 1017.7 1017.7 0.0
02/02:30pm 15.5 8.7 0.9 37 6.3 WSW 26 39 14 21 1017.6 1017.6 0.0
02/02:00pm 15.4 7.8 0.8 37 6.3 W 30 43 16 23 1017.7 1017.7 0.0
02/01:30pm 15.6 8.2 1.7 39 6.1 W 30 46 16 25 1017.8 1017.8 0.0
02/01:00pm 15.4 7.9 1.2 38 6.2 WSW 30 44 16 24 1017.8 1017.8 0.0
02/12:50pm 15.5 8.8 1.3 38 6.2 WSW 26 48 14 26 1017.9 1017.9 0.0
02/12:30pm 15.1 8.0 1.6 40 5.9 WSW 28 41 15 22 1018.4 1018.4 0.0
02/12:00pm 14.4 5.5 1.0 40 5.7 WSW 37 52 20 28 1018.8 1018.8 0.0
02/11:41am 14.2 6.3 0.8 40 5.7 WSW 32 52 17 28 1019.0 1019.0 0.0
02/11:30am 14.1 6.3 1.7 43 5.4 WSW 32 43 17 23 1019.3 1019.3 0.0
02/11:20am 13.7 5.8 1.0 42 5.4 WSW 32 50 17 27 1019.4 1019.4 0.0
02/11:00am 13.3 6.2 1.3 44 5.1 WSW 28 44 15 24 1019.5 1019.5 0.0
02/10:54am 13.3 5.9 1.6 45 5.0 WSW 30 48 16 26 1019.7 1019.7 0.0
02/10:30am 12.6 5.2 1.6 47 4.7 WSW 30 44 16 24 1019.9 1019.9 0.0
02/10:00am 12.0 5.8 2.2 51 4.2 WSW 24 43 13 23 1020.1 1020.1 0.0
02/09:30am 10.9 5.8 3.2 59 3.4 W 19 26 10 14 1020.2 1020.2 0.0
02/09:00am 8.9 4.9 2.9 66 2.5 WNW 13 19 7 10 1020.4 1020.4 0.0
02/08:30am 6.9 3.3 3.0 76 1.6 N 11 13 6 7 1020.5 1020.5 0.0
02/08:00am 6.3 3.7 3.1 80 1.3 NW 6 9 3 5 1020.7 1020.7 0.0
02/07:30am 4.7 1.6 1.6 80 1.2 NW 7 9 4 5 1020.6 1020.6 0.0
02/07:00am 4.3 0.4 1.3 81 1.2 NW 11 15 6 8 1020.5 1020.5 0.0
02/06:30am 3.7 0.2 1.3 84 0.9 NW 9 13 5 7 1020.4 1020.4 0.0
02/06:00am 2.6 -1.4 0.3 85 0.9 WNW 11 13 6 7 1020.4 1020.4 0.0
02/05:30am 2.7 -0.6 0.1 83 1.0 NW 7 9 4 5 1020.5 1020.5 0.0
02/05:00am 3.2 1.2 -0.1 79 1.2 CALM 0 0 0 0 1020.5 1020.5 0.0
02/04:30am 4.2 1.0 0.5 77 1.4 NW 7 9 4 5 1020.5 1020.5 0.0
02/04:00am 5.0 2.1 1.7 79 1.3 NW 6 9 3 5 1020.5 1020.5 0.0
02/03:30am 3.4 0.2 0.6 82 1.1 W 7 9 4 5 1020.8 1020.8 0.0
02/03:00am 4.6 1.5 1.5 80 1.2 NNW 7 9 4 5 1021.0 1021.0 0.0
02/02:30am 4.8 3.1 1.8 81 1.2 CALM 0 6 0 3 1021.0 1021.0 0.0
02/02:00am 5.2 3.6 2.2 81 1.2 CALM 0 0 0 0 1021.0 1021.0 0.0
02/01:30am 5.0 2.2 2.2 82 1.1 WSW 6 9 3 5 1021.3 1021.3 0.0
02/01:00am 5.7 3.0 2.7 81 1.2 WSW 6 7 3 4 1021.4 1021.4 0.0
02/12:30am 5.8 3.0 3.0 82 1.2 SW 7 7 4 4 1022.0 1022.0 0.0
02/12:00am 5.3 2.9 2.1 80 1.3 SW 4 7 2 4 1022.2 1022.2 0.0
 
Date/Time
EST
Tmp

°C
App
Tmp
°C
Dew
Point
°C
Rel
Hum
%
Delta-T

°C
Wind Press
QNH
hPa
Press
MSL
hPa
Rain
since
9 am
mm
Dir
 
Spd
km/h
Gust
km/h
Spd
kts
Gust
kts
01/11:30pm 6.6 5.3 4.3 85 1.0 CALM 0 6 0 3 1022.6 1022.6 0.0
01/11:00pm 6.6 5.0 4.6 87 0.9 SW 2 6 1 3 1023.1 1023.1 0.0
01/10:30pm 5.6 4.2 3.4 86 0.9 CALM 0 0 0 0 1023.0 1023.0 0.0
01/10:00pm 6.3 5.0 4.0 85 1.0 CALM 0 0 0 0 1022.8 1022.8 0.0
01/09:30pm 7.0 5.8 4.5 84 1.1 CALM 0 0 0 0 1023.0 1023.0 0.0
01/09:00pm 8.3 6.6 5.8 84 1.1 WSW 4 6 2 3 1022.9 1022.9 0.0
01/08:30pm 7.6 5.7 4.9 83 1.2 WSW 4 7 2 4 1023.7 1023.7 0.0
01/08:00pm 7.9 6.4 5.0 82 1.3 SW 2 6 1 3 1023.6 1023.6 0.0
01/07:30pm 8.8 7.7 5.0 77 1.7 CALM 0 0 0 0 1023.3 1023.3 0.0
01/07:00pm 9.0 7.9 5.0 76 1.8 CALM 0 0 0 0 1023.3 1023.3 0.0
01/06:30pm 10.2 9.2 5.4 72 2.2 CALM 0 2 0 1 1023.1 1023.1 0.0
01/06:00pm 10.8 9.6 4.7 66 2.7 CALM 0 0 0 0 1022.8 1022.8 0.0
01/05:30pm 11.1 9.6 3.2 58 3.5 CALM 0 6 0 3 1022.7 1022.7 0.0
01/05:00pm 12.9 11.4 3.0 51 4.4 CALM 0 0 0 0 1022.3 1022.3 0.0
01/04:30pm 14.8 11.9 1.3 40 5.8 SSW 6 7 3 4 1022.4 1022.4 0.0
01/04:00pm 15.6 12.5 1.3 38 6.2 SW 7 11 4 6 1022.5 1022.5 0.0
01/03:30pm 15.8 11.8 0.4 35 6.6 W 11 15 6 8 1022.7 1022.7 0.0
01/03:00pm 16.0 11.7 1.0 36 6.5 WNW 13 17 7 9 1022.7 1022.7 0.0
01/02:30pm 15.9 12.0 0.9 36 6.5 WSW 11 17 6 9 1022.9 1022.9 0.0
01/02:00pm 15.9 12.3 0.5 35 6.6 SW 9 15 5 8 1023.2 1023.2 0.0
01/01:30pm 15.3 11.6 -0.1 35 6.5 WSW 9 17 5 9 1023.6 1023.6 0.0
01/01:00pm 15.4 11.0 0.4 36 6.4 SW 13 20 7 11 1024.2 1024.2 0.0
01/12:30pm 15.3 11.0 0.7 37 6.3 SW 13 19 7 10 1024.7 1024.7 0.0
01/12:00pm 15.0 10.7 0.8 38 6.1 W 13 19 7 10 1024.9 1024.9 0.0
01/11:30am 14.1 11.3 3.0 47 5.0 SW 7 15 4 8 1025.5 1025.5 0.0
01/11:00am 13.1 9.0 2.4 48 4.6 SW 13 20 7 11 1026.2 1026.2 0.0
01/10:30am 12.3 7.9 2.7 52 4.2 SW 15 20 8 11 1026.6 1026.6 0.0
01/10:00am 11.8 7.6 3.6 57 3.6 SW 15 24 8 13 1026.6 1026.6 0.0
01/09:30am 11.0 6.8 4.0 62 3.1 SW 15 20 8 11 1026.5 1026.5 0.0
01/09:00am 10.1 7.3 5.3 72 2.2 SSW 9 13 5 7 1026.6 1026.6 3.4
01/08:30am 10.0 7.0 6.0 76 1.8 SSW 11 17 6 9 1026.5 1026.5 3.4
01/08:00am 9.8 7.6 7.9 88 0.9 WSW 9 13 5 7 1026.4 1026.4 3.4
01/07:30am 9.0 6.7 7.3 89 0.8 W 9 9 5 5 1026.2 1026.2 3.4
01/07:10am 9.6 9.1 7.7 88 0.9 CALM 0 0 0 0 1025.9 1025.9 3.4
01/07:00am 9.6 9.1 7.7 88 0.9 CALM 0 0 0 0 1025.7 1025.7 3.4
01/06:55am 9.5 8.9 7.6 88 0.9 CALM 0 0 0 0 1025.6 1025.6 3.2
01/06:30am 10.2 9.8 8.3 88 0.9 CALM 0 0 0 0 1025.5 1025.5 3.2
01/06:00am 10.2 8.4 8.1 87 1.0 WNW 7 9 4 5 1025.3 1025.3 3.2
01/05:30am 10.5 10.1 8.3 86 1.1 CALM 0 0 0 0 1024.8 1024.8 3.2
01/05:00am 10.6 10.1 8.0 84 1.3 CALM 0 0 0 0 1025.0 1025.0 2.4
01/04:30am 10.8 10.3 8.0 83 1.4 CALM 0 0 0 0 1025.1 1025.1 1.4
01/04:00am 10.9 9.3 8.0 82 1.4 WNW 6 9 3 5 1025.0 1025.0 0.8
01/03:30am 11.2 10.6 7.5 78 1.8 CALM 0 0 0 0 1024.9 1024.9 0.2
01/03:00am 11.1 9.2 7.4 78 1.8 W 7 7 4 4 1024.8 1024.8 0.2
01/02:30am 11.5 9.6 6.8 73 2.2 NNW 6 7 3 4 1024.9 1024.9 0.0
01/02:00am 11.1 9.5 6.5 73 2.2 WSW 4 9 2 5 1025.2 1025.2 0.0
01/01:30am 11.0 8.9 6.7 75 2.0 WSW 7 9 4 5 1024.9 1024.9 0.0
01/01:00am 11.0 10.2 6.7 75 2.0 CALM 0 4 0 2 1024.9 1024.9 0.0
01/12:30am 10.7 9.1 6.5 75 2.0 SSW 4 9 2 5 1025.1 1025.1 0.0
01/12:00am 11.1 9.0 6.6 74 2.1 SSE 7 9 4 5 1025.1 1025.1 0.0
 
Date/Time
EST
Tmp

°C
App
Tmp
°C
Dew
Point
°C
Rel
Hum
%
Delta-T

°C
Wind Press
QNH
hPa
Press
MSL
hPa
Rain
since
9 am
mm
Dir
 
Spd
km/h
Gust
km/h
Spd
kts
Gust
kts
30/11:30pm 11.5 9.1 7.0 74 2.1 SW 9 11 5 6 1025.2 1025.2 0.0
30/11:00pm 11.7 10.1 8.0 78 1.8 SW 6 9 3 5 1025.4 1025.4 0.0
30/10:30pm 11.6 10.0 8.6 82 1.5 WNW 7 9 4 5 1025.6 1025.6 0.0
30/10:00pm 12.2 12.0 8.9 80 1.6 CALM 0 0 0 0 1025.8 1025.8 0.0
30/09:30pm 11.7 10.3 8.7 82 1.5 N 6 7 3 4 1025.8 1025.8 0.0
30/09:00pm 11.5 11.2 8.5 82 1.5 CALM 0 0 0 0 1025.7 1025.7 0.0
30/08:30pm 11.3 10.8 8.0 80 1.6 CALM 0 0 0 0 1025.6 1025.6 0.0
30/08:00pm 13.0 12.6 8.3 73 2.3 CALM 0 0 0 0 1025.5 1025.5 0.0
30/07:30pm 13.4 13.2 9.1 75 2.2 CALM 0 0 0 0 1025.5 1025.5 0.0
30/07:00pm 13.2 12.9 8.7 74 2.2 CALM 0 0 0 0 1025.6 1025.6 0.0
30/06:30pm 13.5 13.2 8.8 73 2.4 CALM 0 0 0 0 1025.4 1025.4 0.0
30/06:00pm 14.1 13.8 8.7 70 2.7 CALM 0 0 0 0 1024.9 1024.9 0.0

Latest Capital City Observations: Canberra | Sydney | Melbourne | Brisbane | Adelaide | Perth | Hobart | Darwin

Other Formats:

Comma delimited format used in spreadsheet applications
http://www.bom.gov.au/fwo/IDN60901/IDN60901.94765.axf

JavaScript Object Notation format (JSON) in row-major order
http://www.bom.gov.au/fwo/IDN60901/IDN60901.94765.json